createdAt,value
2018-03-18T00:00:53.745Z,28.38
2018-03-18T00:03:20.812Z,11.15
2018-03-18T00:05:47.295Z,11.60
2018-03-18T00:08:14.274Z,11.02
2018-03-18T00:10:41.535Z,11.82
2018-03-18T00:13:09.159Z,11.93
2018-03-18T00:15:36.700Z,11.60
2018-03-18T00:18:03.443Z,11.00
2018-03-18T00:20:30.707Z,10.85
2018-03-18T00:22:57.927Z,10.98
2018-03-18T00:25:25.140Z,11.90
2018-03-18T00:27:52.033Z,11.10
2018-03-18T00:30:19.254Z,11.40
2018-03-18T00:32:45.541Z,10.57
2018-03-18T00:35:13.059Z,11.12
2018-03-18T00:37:39.805Z,12.13
2018-03-18T00:40:06.596Z,12.75
2018-03-18T00:42:33.366Z,11.95
2018-03-18T00:45:00.174Z,15.25
2018-03-18T00:47:26.442Z,12.27
2018-03-18T00:49:53.185Z,12.88
2018-03-18T00:52:19.378Z,10.90
2018-03-18T00:54:46.194Z,12.20
2018-03-18T00:57:13.137Z,11.70
2018-03-18T00:59:40.369Z,12.37
2018-03-18T01:02:07.993Z,11.70
2018-03-18T01:04:34.207Z,10.73
2018-03-18T01:07:01.107Z,11.38
2018-03-18T01:09:28.647Z,11.75
2018-03-18T01:11:54.851Z,11.27
2018-03-18T01:14:21.184Z,12.45
2018-03-18T01:16:48.052Z,11.05
2018-03-18T01:19:15.309Z,12.18
2018-03-18T01:21:41.865Z,12.85
2018-03-18T01:24:09.771Z,10.63
2018-03-18T01:26:36.001Z,11.98
2018-03-18T01:29:02.691Z,11.93
2018-03-18T01:31:30.273Z,12.60
2018-03-18T01:33:56.628Z,12.50
2018-03-18T01:36:24.609Z,11.98
2018-03-18T01:38:50.827Z,11.98
2018-03-18T01:41:17.031Z,10.93
2018-03-18T01:43:43.879Z,12.13
2018-03-18T01:46:10.151Z,10.65
2018-03-18T01:48:36.692Z,11.68
2018-03-18T01:51:03.660Z,10.60
2018-03-18T01:53:30.588Z,11.90
2018-03-18T01:55:57.184Z,11.15
2018-03-18T01:58:24.793Z,12.05
2018-03-18T02:00:52.395Z,11.15
2018-03-18T02:03:19.704Z,11.15
2018-03-18T02:05:46.899Z,11.12
2018-03-18T02:08:13.226Z,11.35
2018-03-18T02:10:39.431Z,11.95
2018-03-18T02:13:06.958Z,10.00
2018-03-18T02:15:33.728Z,10.73
2018-03-18T02:18:01.243Z,10.65
2018-03-18T02:20:28.864Z,10.48
2018-03-18T02:22:56.047Z,10.90
2018-03-18T02:25:23.548Z,10.57
2018-03-18T02:27:51.084Z,10.20
2018-03-18T02:30:18.075Z,10.55
2018-03-18T02:32:44.287Z,10.07
2018-03-18T02:35:11.228Z,12.07
2018-03-18T02:37:39.062Z,10.25
2018-03-18T02:40:06.076Z,10.85
2018-03-18T02:42:32.290Z,10.07
2018-03-18T02:44:59.249Z,11.20
2018-03-18T02:47:26.895Z,10.52
2018-03-18T02:49:53.180Z,10.10
2018-03-18T02:52:20.256Z,10.55
2018-03-18T02:54:48.636Z,10.57
2018-03-18T02:57:15.386Z,10.30
2018-03-18T02:59:42.204Z,9.93
2018-03-18T03:02:09.408Z,10.23
2018-03-18T03:04:36.386Z,10.98
2018-03-18T03:07:03.977Z,10.45
2018-03-18T03:09:30.243Z,10.15
2018-03-18T03:11:57.006Z,10.73
2018-03-18T03:14:23.571Z,11.23
2018-03-18T03:16:51.058Z,11.02
2018-03-18T03:19:17.963Z,10.90
2018-03-18T03:21:45.081Z,10.02
2018-03-18T03:24:13.157Z,10.00
2018-03-18T03:26:39.989Z,10.20
2018-03-18T03:29:07.115Z,9.70
2018-03-18T03:31:33.427Z,10.65
2018-03-18T03:33:59.916Z,9.70
2018-03-18T03:36:26.739Z,9.82
2018-03-18T03:38:52.936Z,9.88
2018-03-18T03:41:20.065Z,9.57
2018-03-18T03:43:48.307Z,9.88
2018-03-18T03:46:14.750Z,9.60
2018-03-18T03:48:41.715Z,8.85
2018-03-18T03:51:09.226Z,10.43
2018-03-18T03:53:36.198Z,9.77
2018-03-18T03:56:02.636Z,10.88
2018-03-18T03:58:29.590Z,11.05
2018-03-18T04:00:57.039Z,11.35
2018-03-18T04:03:23.974Z,11.15
2018-03-18T04:05:50.384Z,11.50
2018-03-18T04:08:17.100Z,11.12
2018-03-18T04:10:43.917Z,11.07
2018-03-18T04:13:11.128Z,10.05
2018-03-18T04:15:37.749Z,9.15
2018-03-18T04:18:05.395Z,10.93
2018-03-18T04:20:31.590Z,12.13
2018-03-18T04:22:58.764Z,11.25
2018-03-18T04:25:24.958Z,11.55
2018-03-18T04:27:52.110Z,11.12
2018-03-18T04:30:19.159Z,11.55
2018-03-18T04:32:45.894Z,10.00
2018-03-18T04:35:14.049Z,11.30
2018-03-18T04:37:41.604Z,10.98
2018-03-18T04:40:08.647Z,10.40
2018-03-18T04:42:35.462Z,10.45
2018-03-18T04:45:02.255Z,10.38
2018-03-18T04:47:29.748Z,11.35
2018-03-18T04:49:57.104Z,11.57
2018-03-18T04:52:23.425Z,10.60
2018-03-18T04:54:50.328Z,11.48
2018-03-18T04:57:16.574Z,11.43
2018-03-18T04:59:42.839Z,11.23
2018-03-18T05:02:09.556Z,11.18
2018-03-18T05:04:36.868Z,12.45
2018-03-18T05:07:04.167Z,12.25
2018-03-18T05:09:30.422Z,10.80
2018-03-18T05:11:56.690Z,11.93
2018-03-18T05:14:23.750Z,11.15
2018-03-18T05:16:51.700Z,11.90
2018-03-18T05:19:18.466Z,10.02
2018-03-18T05:21:45.984Z,10.07
2018-03-18T05:24:12.726Z,10.75
2018-03-18T05:26:39.322Z,11.07
2018-03-18T05:29:06.761Z,11.32
2018-03-18T05:31:34.452Z,12.30
2018-03-18T05:34:00.937Z,11.12
2018-03-18T05:36:28.746Z,11.85
2018-03-18T05:38:55.776Z,11.90
2018-03-18T05:41:22.520Z,11.60
2018-03-18T05:43:49.258Z,11.43
2018-03-18T05:46:15.700Z,11.55
2018-03-18T05:48:42.870Z,11.60
2018-03-18T05:51:09.861Z,10.27
2018-03-18T05:53:36.855Z,10.80
2018-03-18T05:56:04.059Z,11.27
2018-03-18T05:58:32.560Z,10.57
2018-03-18T06:00:58.753Z,10.10
2018-03-18T06:03:25.111Z,13.25
2018-03-18T06:05:52.623Z,11.85
2018-03-18T06:08:19.575Z,11.00
2018-03-18T06:10:45.782Z,10.85
2018-03-18T06:13:12.538Z,11.15
2018-03-18T06:15:39.580Z,11.07
2018-03-18T06:18:05.788Z,10.65
2018-03-18T06:20:33.385Z,11.93
2018-03-18T06:23:00.427Z,13.52
2018-03-18T06:25:27.284Z,12.63
2018-03-18T06:27:54.812Z,11.75
2018-03-18T06:30:21.467Z,12.40
2018-03-18T06:32:48.648Z,14.15
2018-03-18T06:35:15.440Z,14.23
2018-03-18T06:37:42.458Z,14.02
2018-03-18T06:40:10.635Z,13.27
2018-03-18T06:42:38.073Z,12.57
2018-03-18T06:45:05.114Z,14.65
2018-03-18T06:47:32.517Z,15.82
2018-03-18T06:49:59.423Z,16.73
2018-03-18T06:52:25.616Z,16.67
2018-03-18T06:54:53.126Z,12.85
2018-03-18T06:57:19.625Z,12.93
2018-03-18T06:59:45.768Z,12.75
2018-03-18T07:02:11.962Z,12.40
2018-03-18T07:04:39.567Z,12.65
2018-03-18T07:07:06.386Z,12.52
2018-03-18T07:09:32.837Z,12.45
2018-03-18T07:11:59.577Z,12.88
2018-03-18T07:14:26.008Z,16.62
2018-03-18T07:16:53.204Z,14.05
2018-03-18T07:19:19.624Z,14.45
2018-03-18T07:21:45.866Z,15.02
2018-03-18T07:24:12.687Z,14.15
2018-03-18T07:26:38.883Z,13.75
2018-03-18T07:29:05.074Z,13.50
2018-03-18T07:31:31.827Z,13.40
2018-03-18T07:34:00.286Z,12.65
2018-03-18T07:36:27.602Z,13.75
2018-03-18T07:38:55.028Z,13.25
2018-03-18T07:41:21.796Z,12.37
2018-03-18T07:43:49.467Z,13.48
2018-03-18T07:46:16.233Z,12.60
2018-03-18T07:48:43.002Z,13.52
2018-03-18T07:51:11.339Z,11.80
2018-03-18T07:53:38.355Z,11.82
2018-03-18T07:56:05.847Z,11.48
2018-03-18T07:58:32.564Z,11.77
2018-03-18T08:00:59.495Z,12.45
2018-03-18T08:03:26.314Z,11.52
2018-03-18T08:05:53.915Z,11.90
2018-03-18T08:08:20.453Z,12.98
2018-03-18T08:10:46.692Z,11.70
2018-03-18T08:13:14.074Z,12.00
2018-03-18T08:15:42.156Z,12.68
2018-03-18T08:18:09.115Z,12.20
2018-03-18T08:20:35.915Z,11.02
2018-03-18T08:23:02.658Z,13.32
2018-03-18T08:25:30.498Z,13.15
2018-03-18T08:27:56.703Z,12.48
2018-03-18T08:30:23.557Z,11.60
2018-03-18T08:32:50.351Z,12.25
2018-03-18T08:35:17.496Z,13.00
2018-03-18T08:37:44.985Z,12.82
2018-03-18T08:40:11.471Z,12.15
2018-03-18T08:42:38.362Z,12.40
2018-03-18T08:45:04.820Z,10.55
2018-03-18T08:47:31.626Z,12.35
2018-03-18T08:49:57.869Z,13.25
2018-03-18T08:52:24.380Z,12.52
2018-03-18T08:54:51.322Z,15.43
2018-03-18T08:57:18.845Z,13.60
2018-03-18T08:59:45.050Z,13.40
2018-03-18T09:02:11.265Z,12.77
2018-03-18T09:04:37.475Z,12.80
2018-03-18T09:07:03.792Z,11.95
2018-03-18T09:09:31.882Z,13.10
2018-03-18T09:11:58.987Z,12.30
2018-03-18T09:14:26.592Z,14.02
2018-03-18T09:16:53.730Z,12.70
2018-03-18T09:19:19.934Z,12.75
2018-03-18T09:21:46.661Z,12.88
2018-03-18T09:24:13.088Z,12.90
2018-03-18T09:26:39.312Z,12.05
2018-03-18T09:29:06.473Z,11.75
2018-03-18T09:31:34.032Z,12.00
2018-03-18T09:34:00.482Z,12.07
2018-03-18T09:36:28.515Z,11.88
2018-03-18T09:38:55.232Z,11.57
2018-03-18T09:41:21.668Z,11.27
2018-03-18T09:43:48.416Z,10.77
2018-03-18T09:46:15.133Z,12.70
2018-03-18T09:48:41.347Z,12.07
2018-03-18T09:51:08.649Z,12.13
2018-03-18T09:53:34.840Z,12.68
2018-03-18T09:56:01.989Z,12.02
2018-03-18T09:58:29.127Z,12.45
2018-03-18T10:00:56.509Z,11.40
2018-03-18T10:03:22.711Z,11.23
2018-03-18T10:05:49.895Z,11.15
2018-03-18T10:08:17.159Z,12.37
2018-03-18T10:10:44.591Z,12.75
2018-03-18T10:13:13.167Z,12.90
2018-03-18T10:15:40.706Z,12.23
2018-03-18T10:18:08.003Z,11.95
2018-03-18T10:20:35.513Z,12.20
2018-03-18T10:23:01.761Z,11.95
2018-03-18T10:25:28.094Z,12.25
2018-03-18T10:27:55.079Z,12.30
2018-03-18T10:30:21.429Z,13.62
2018-03-18T10:32:48.410Z,14.18
2018-03-18T10:35:14.756Z,12.95
2018-03-18T10:37:41.429Z,13.18
2018-03-18T10:40:08.608Z,14.45
2018-03-18T10:42:36.266Z,14.20
2018-03-18T10:45:03.518Z,14.20
2018-03-18T10:47:33.536Z,14.40
2018-03-18T10:50:00.658Z,16.08
2018-03-18T10:52:27.264Z,17.12
2018-03-18T10:54:55.716Z,14.80
2018-03-18T10:57:23.382Z,13.40
2018-03-18T10:59:50.486Z,13.35
2018-03-18T11:02:18.029Z,14.32
2018-03-18T11:04:46.603Z,14.10
2018-03-18T11:07:13.630Z,12.18
2018-03-18T11:09:41.008Z,14.25
2018-03-18T11:12:07.468Z,12.70
2018-03-18T11:14:34.419Z,12.50
2018-03-18T11:17:00.631Z,12.00
2018-03-18T11:19:27.849Z,12.27
2018-03-18T11:21:54.890Z,12.40
2018-03-18T11:24:21.109Z,14.05
2018-03-18T11:26:48.339Z,12.55
2018-03-18T11:29:14.577Z,13.15
2018-03-18T11:31:41.510Z,13.38
2018-03-18T11:34:09.130Z,11.02
2018-03-18T11:36:36.485Z,10.45
2018-03-18T11:39:03.908Z,13.00
2018-03-18T11:41:30.778Z,11.05
2018-03-18T11:43:57.518Z,11.25
2018-03-18T11:46:24.138Z,11.68
2018-03-18T11:48:51.209Z,12.15
2018-03-18T11:51:18.014Z,12.55
2018-03-18T11:53:45.567Z,12.40
2018-03-18T11:56:11.815Z,10.90
2018-03-18T11:58:38.520Z,12.73
2018-03-18T12:01:05.267Z,11.35
2018-03-18T12:03:32.004Z,12.07
2018-03-18T12:05:58.217Z,11.75
2018-03-18T12:08:37.506Z,12.82
2018-03-18T12:11:04.704Z,13.40
2018-03-18T12:13:32.273Z,12.37
2018-03-18T12:15:58.488Z,11.20
2018-03-18T12:18:25.447Z,13.18
2018-03-18T12:20:51.716Z,12.52
2018-03-18T12:23:18.267Z,12.57
2018-03-18T12:25:46.443Z,14.27
2018-03-18T12:28:14.247Z,13.10
2018-03-18T12:30:41.198Z,14.63
2018-03-18T12:33:07.952Z,11.52
2018-03-18T12:35:35.747Z,11.63
2018-03-18T12:38:02.450Z,12.48
2018-03-18T12:40:33.219Z,12.00
2018-03-18T12:43:12.462Z,13.27
2018-03-18T12:45:40.016Z,11.85
2018-03-18T12:48:06.773Z,12.57
2018-03-18T12:50:34.083Z,11.43
2018-03-18T12:53:01.115Z,12.63
2018-03-18T12:55:27.413Z,11.65
2018-03-18T12:57:54.998Z,11.60
2018-03-18T13:00:21.260Z,11.90
2018-03-18T13:02:48.210Z,12.70
2018-03-18T13:05:14.501Z,11.12
2018-03-18T13:07:40.803Z,13.00
2018-03-18T13:10:08.343Z,11.23
2018-03-18T13:12:36.108Z,11.23
2018-03-18T13:15:03.096Z,11.27
2018-03-18T13:17:30.209Z,11.18
2018-03-18T13:19:56.523Z,12.10
2018-03-18T13:22:23.396Z,11.45
2018-03-18T13:24:50.627Z,11.90
2018-03-18T13:27:18.279Z,10.85
2018-03-18T13:29:44.608Z,12.52
2018-03-18T13:32:13.466Z,12.35
2018-03-18T13:34:40.296Z,13.65
2018-03-18T13:37:07.759Z,12.02
2018-03-18T13:39:34.816Z,12.13
2018-03-18T13:42:01.409Z,11.73
2018-03-18T13:44:29.075Z,11.50
2018-03-18T13:46:56.439Z,10.35
2018-03-18T13:49:24.433Z,10.77
2018-03-18T13:52:00.379Z,11.57
2018-03-18T13:54:29.174Z,11.00
2018-03-18T13:57:03.896Z,11.20
2018-03-18T13:59:32.053Z,11.45
2018-03-18T14:01:59.197Z,11.95
2018-03-18T14:04:26.203Z,10.35
2018-03-18T14:06:52.644Z,11.75
2018-03-18T14:09:19.592Z,10.25
2018-03-18T14:11:45.977Z,11.52
2018-03-18T14:14:12.938Z,10.90
2018-03-18T14:16:39.322Z,11.25
2018-03-18T14:19:07.485Z,11.43
2018-03-18T14:21:35.009Z,10.82
2018-03-18T14:24:02.614Z,10.38
2018-03-18T14:26:36.923Z,12.18
2018-03-18T14:29:03.847Z,12.68
2018-03-18T14:31:30.916Z,10.82
2018-03-18T14:33:58.562Z,10.73
2018-03-18T14:36:25.976Z,10.60
2018-03-18T14:38:52.903Z,10.05
2018-03-18T14:41:20.534Z,10.55
2018-03-18T14:43:48.077Z,9.88
2018-03-18T14:46:14.419Z,12.27
2018-03-18T14:48:42.046Z,9.77
2018-03-18T14:51:08.354Z,10.77
2018-03-18T14:53:34.595Z,9.65
2018-03-18T14:56:02.835Z,10.50
2018-03-18T14:58:29.285Z,10.00
2018-03-18T15:00:56.166Z,9.40
2018-03-18T15:03:22.589Z,9.77
2018-03-18T15:05:49.974Z,10.52
2018-03-18T15:08:17.272Z,9.80
2018-03-18T15:10:44.096Z,10.65
2018-03-18T15:13:11.098Z,11.52
2018-03-18T15:15:37.425Z,10.75
2018-03-18T15:18:05.314Z,11.10
2018-03-18T15:20:32.332Z,10.10
2018-03-18T15:22:58.935Z,11.10
2018-03-18T15:25:27.010Z,11.60
2018-03-18T15:27:53.268Z,11.80
2018-03-18T15:30:19.588Z,10.07
2018-03-18T15:32:46.463Z,11.93
2018-03-18T15:35:12.974Z,10.60
2018-03-18T15:37:40.045Z,10.68
2018-03-18T15:40:06.413Z,10.27
2018-03-18T15:42:33.328Z,10.02
2018-03-18T15:45:00.428Z,10.30
2018-03-18T15:47:28.442Z,9.80
2018-03-18T15:49:54.688Z,10.23
2018-03-18T15:52:21.933Z,10.70
2018-03-18T15:54:49.059Z,10.40
2018-03-18T15:57:15.309Z,10.80
2018-03-18T15:59:43.451Z,10.55
2018-03-18T16:02:10.442Z,10.85
2018-03-18T16:04:38.728Z,10.45
2018-03-18T16:07:05.125Z,11.15
2018-03-18T16:09:32.659Z,10.95
2018-03-18T16:11:59.687Z,10.18
2018-03-18T16:14:26.452Z,9.90
2018-03-18T16:16:53.548Z,10.20
2018-03-18T16:19:20.551Z,10.70
2018-03-18T16:21:50.980Z,11.45
2018-03-18T16:24:18.723Z,10.23
2018-03-18T16:26:45.961Z,11.40
2018-03-18T16:32:18.211Z,10.30
2018-03-18T16:34:45.135Z,11.18
2018-03-18T16:37:11.732Z,10.82
2018-03-18T16:39:38.457Z,11.60
2018-03-18T16:42:05.117Z,10.70
2018-03-18T16:44:31.786Z,10.57
2018-03-18T16:46:59.024Z,10.38
2018-03-18T16:49:25.828Z,8.88
2018-03-18T16:51:52.681Z,10.90
2018-03-18T16:54:19.310Z,11.02
2018-03-18T16:56:46.622Z,10.60
2018-03-18T16:59:13.694Z,11.00
2018-03-18T17:01:39.973Z,9.73
2018-03-18T17:04:06.575Z,9.82
2018-03-18T17:06:33.219Z,11.30
2018-03-18T17:09:00.941Z,10.32
2018-03-18T17:11:27.681Z,10.52
2018-03-18T17:13:54.462Z,10.45
2018-03-18T17:16:21.231Z,10.70
2018-03-18T17:18:48.307Z,10.13
2018-03-18T17:21:15.307Z,10.85
2018-03-18T17:23:42.067Z,10.85
2018-03-18T17:26:08.465Z,10.27
2018-03-18T17:28:35.492Z,9.80
2018-03-18T17:31:02.870Z,10.73
2018-03-18T17:33:30.823Z,10.93
2018-03-18T17:35:57.355Z,8.65
2018-03-18T17:38:24.483Z,10.57
2018-03-18T17:40:51.531Z,10.95
2018-03-18T17:43:17.767Z,10.95
2018-03-18T17:45:56.238Z,9.63
2018-03-18T17:48:34.552Z,11.02
2018-03-18T17:51:13.055Z,10.43
2018-03-18T17:53:52.148Z,12.20
2018-03-18T17:56:30.926Z,9.55
2018-03-18T17:58:57.332Z,10.60
2018-03-18T18:01:24.346Z,11.88
2018-03-18T18:03:50.839Z,10.38
2018-03-18T18:06:18.157Z,10.48
2018-03-18T18:08:45.544Z,10.13
2018-03-18T18:11:12.193Z,10.48
2018-03-18T18:13:39.879Z,9.60
2018-03-18T18:16:07.008Z,10.02
2018-03-18T18:18:34.046Z,10.43
2018-03-18T18:21:00.596Z,10.45
2018-03-18T18:23:27.658Z,15.65
2018-03-18T18:25:54.733Z,12.07
2018-03-18T18:28:22.014Z,9.90
2018-03-18T18:30:49.076Z,10.05
2018-03-18T18:33:15.456Z,10.95
2018-03-18T18:35:42.482Z,9.75
2018-03-18T18:38:10.433Z,10.57
2018-03-18T18:40:37.993Z,10.20
2018-03-18T18:43:05.019Z,11.30
2018-03-18T18:45:31.966Z,11.77
2018-03-18T18:47:58.990Z,11.45
2018-03-18T18:50:26.352Z,11.98
2018-03-18T18:52:53.781Z,10.55
2018-03-18T18:55:21.206Z,10.93
2018-03-18T18:57:48.473Z,9.82
2018-03-18T19:00:15.833Z,10.73
2018-03-18T19:02:42.934Z,11.27
2018-03-18T19:05:09.333Z,9.75
2018-03-18T19:07:36.198Z,12.13
2018-03-18T19:10:03.912Z,11.30
2018-03-18T19:12:30.975Z,10.85
2018-03-18T19:14:57.945Z,10.18
2018-03-18T19:17:24.357Z,12.07
2018-03-18T19:19:50.733Z,11.30
2018-03-18T19:22:17.266Z,10.77
2018-03-18T19:24:43.982Z,11.85
2018-03-18T19:27:11.452Z,11.82
2018-03-18T19:29:39.622Z,11.57
2018-03-18T19:32:06.880Z,10.60
2018-03-18T19:34:34.358Z,10.73
2018-03-18T19:37:01.586Z,10.77
2018-03-18T19:39:28.140Z,12.10
2018-03-18T19:41:55.218Z,11.90
2018-03-18T19:44:21.818Z,11.27
2018-03-18T19:46:51.771Z,13.13
2018-03-18T19:49:18.252Z,11.73
2018-03-18T19:51:44.931Z,11.73
2018-03-18T19:54:12.384Z,10.15
2018-03-18T19:56:39.578Z,11.20
2018-03-18T19:59:06.377Z,11.75
2018-03-18T20:01:33.565Z,11.12
2018-03-18T20:04:00.045Z,12.15
2018-03-18T20:06:27.220Z,10.98
2018-03-18T20:08:53.770Z,11.65
2018-03-18T20:11:20.429Z,12.43
2018-03-18T20:13:48.543Z,11.90
2018-03-18T20:16:15.845Z,11.80
2018-03-18T20:18:42.380Z,12.15
2018-03-18T20:21:09.313Z,11.65
2018-03-18T20:23:36.532Z,12.48
2018-03-18T20:26:04.052Z,11.32
2018-03-18T20:28:30.445Z,11.50
2018-03-18T20:30:56.831Z,11.68
2018-03-18T20:33:23.670Z,12.45
2018-03-18T20:35:51.050Z,11.98
2018-03-18T20:38:18.865Z,12.18
2018-03-18T20:40:45.986Z,12.02
2018-03-18T20:43:12.688Z,11.12
2018-03-18T20:45:39.358Z,11.45
2018-03-18T20:48:08.068Z,11.20
2018-03-18T20:50:34.409Z,10.50
2018-03-18T20:53:00.988Z,12.57
2018-03-18T20:55:27.327Z,11.02
2018-03-18T20:57:54.771Z,12.88
2018-03-18T21:00:21.099Z,10.43
2018-03-18T21:02:47.697Z,12.75
2018-03-18T21:05:14.246Z,12.32
2018-03-18T21:07:41.583Z,11.55
2018-03-18T21:10:11.412Z,11.23
2018-03-18T21:12:39.161Z,11.75
2018-03-18T21:15:05.904Z,11.68
2018-03-18T21:17:32.244Z,11.63
2018-03-18T21:19:59.343Z,11.30
2018-03-18T21:22:25.636Z,11.57
2018-03-18T21:24:52.235Z,13.15
2018-03-18T21:27:18.444Z,12.30
2018-03-18T21:29:44.684Z,13.07
2018-03-18T21:32:11.551Z,13.07
2018-03-18T21:34:38.062Z,12.37
2018-03-18T21:37:05.320Z,13.48
2018-03-18T21:39:32.916Z,11.77
2018-03-18T21:42:00.765Z,12.75
2018-03-18T21:44:28.004Z,13.07
2018-03-18T21:46:54.479Z,11.90
2018-03-18T21:49:20.756Z,12.20
2018-03-18T21:51:47.504Z,12.77
2018-03-18T21:54:15.643Z,13.65
2018-03-18T21:56:42.845Z,13.18
2018-03-18T21:59:10.357Z,11.90
2018-03-18T22:01:37.021Z,13.07
2018-03-18T22:04:10.140Z,13.27
2018-03-18T22:06:36.621Z,11.10
2018-03-18T22:09:03.764Z,11.73
2018-03-18T22:11:31.025Z,12.57
2018-03-18T22:13:57.777Z,12.93
2018-03-18T22:16:25.020Z,11.55
2018-03-18T22:18:51.302Z,11.60
2018-03-18T22:21:17.743Z,12.77
2018-03-18T22:23:46.464Z,11.30
2018-03-18T22:26:12.818Z,10.75
2018-03-18T22:28:39.576Z,12.30
2018-03-18T22:31:06.322Z,12.18
2018-03-18T22:33:32.568Z,12.68
2018-03-18T22:35:58.797Z,11.77
2018-03-18T22:38:25.288Z,11.93
2018-03-18T22:40:51.626Z,13.45
2018-03-18T22:43:18.528Z,12.50
2018-03-18T22:45:46.069Z,11.27
2018-03-18T22:48:12.287Z,11.70
2018-03-18T22:50:38.550Z,11.07
2018-03-18T22:53:06.726Z,10.35
2018-03-18T22:55:33.350Z,11.93
2018-03-18T22:58:00.314Z,11.12
2018-03-18T23:00:26.888Z,12.00
2018-03-18T23:02:53.893Z,13.00
2018-03-18T23:05:21.313Z,11.43
2018-03-18T23:07:47.634Z,10.40
2018-03-18T23:10:14.894Z,11.77
2018-03-18T23:12:41.870Z,10.45
2018-03-18T23:15:09.414Z,11.52
2018-03-18T23:17:37.285Z,10.85
2018-03-18T23:20:05.136Z,11.23
2018-03-18T23:22:31.896Z,11.45
2018-03-18T23:24:58.832Z,10.98
2018-03-18T23:27:26.083Z,10.95
2018-03-18T23:29:53.406Z,11.40
2018-03-18T23:32:21.551Z,12.55
2018-03-18T23:34:47.878Z,11.43
2018-03-18T23:37:14.183Z,11.18
2018-03-18T23:39:40.443Z,11.27
2018-03-18T23:42:07.274Z,12.93
2018-03-18T23:44:34.978Z,10.75
2018-03-18T23:47:01.813Z,13.10
2018-03-18T23:49:29.310Z,10.95
2018-03-18T23:51:56.747Z,11.40
2018-03-18T23:54:23.701Z,11.55
2018-03-18T23:56:51.194Z,11.40
2018-03-18T23:59:18.058Z,12.05
